createdAt,value
2019-03-18T00:00:58.108Z,994.05
2019-03-18T00:01:58.113Z,994.05
2019-03-18T00:02:58.123Z,994.04
2019-03-18T00:03:58.123Z,994.07
2019-03-18T00:04:58.128Z,994.10
2019-03-18T00:05:58.131Z,994.03
2019-03-18T00:06:58.136Z,994.12
2019-03-18T00:07:58.143Z,994.14
2019-03-18T00:08:58.146Z,994.20
2019-03-18T00:09:58.152Z,994.22
2019-03-18T00:10:58.157Z,994.20
2019-03-18T00:11:58.162Z,994.22
2019-03-18T00:12:58.165Z,994.22
2019-03-18T00:13:58.172Z,994.20
2019-03-18T00:15:01.424Z,994.16
2019-03-18T00:15:58.182Z,994.16
2019-03-18T00:16:58.186Z,994.15
2019-03-18T00:17:58.189Z,994.14
2019-03-18T00:18:58.194Z,994.18
2019-03-18T00:19:58.199Z,994.18
2019-03-18T00:20:58.217Z,994.15
2019-03-18T00:21:58.209Z,994.10
2019-03-18T00:22:58.214Z,994.20
2019-03-18T00:23:58.218Z,994.18
2019-03-18T00:24:58.223Z,994.22
2019-03-18T00:25:58.229Z,994.24
2019-03-18T00:26:58.231Z,994.16
2019-03-18T00:27:58.236Z,994.19
2019-03-18T00:28:58.242Z,994.21
2019-03-18T00:29:58.247Z,994.26
2019-03-18T00:30:58.308Z,994.24
2019-03-18T00:31:58.256Z,994.24
2019-03-18T00:32:58.261Z,994.28
2019-03-18T00:33:58.268Z,994.33
2019-03-18T00:34:58.274Z,994.33
2019-03-18T00:35:58.275Z,994.27
2019-03-18T00:36:58.280Z,994.26
2019-03-18T00:37:58.286Z,994.25
2019-03-18T00:38:58.309Z,994.20
2019-03-18T00:39:58.315Z,994.19
2019-03-18T00:40:58.301Z,994.18
2019-03-18T00:41:58.306Z,994.19
2019-03-18T00:42:58.309Z,994.19
2019-03-18T00:43:58.317Z,994.21
2019-03-18T00:44:58.319Z,994.19
2019-03-18T00:45:58.326Z,994.21
2019-03-18T00:46:58.335Z,994.21
2019-03-18T00:47:58.334Z,994.13
2019-03-18T00:48:58.339Z,994.13
2019-03-18T00:49:58.344Z,994.12
2019-03-18T00:50:58.348Z,994.16
2019-03-18T00:51:58.352Z,994.16
2019-03-18T00:52:58.362Z,994.15
2019-03-18T00:53:58.363Z,994.15
2019-03-18T00:54:58.371Z,994.09
2019-03-18T00:55:58.372Z,994.08
2019-03-18T00:56:58.378Z,994.06
2019-03-18T00:57:58.382Z,994.06
2019-03-18T00:58:58.384Z,994.08
2019-03-18T00:59:58.390Z,994.01
2019-03-18T01:00:58.396Z,994.00
2019-03-18T01:01:58.401Z,994.06
2019-03-18T01:02:58.409Z,994.07
2019-03-18T01:03:58.410Z,994.09
2019-03-18T01:04:58.416Z,994.05
2019-03-18T01:05:58.420Z,994.09
2019-03-18T01:06:58.424Z,994.12
2019-03-18T01:07:58.495Z,994.16
2019-03-18T01:08:58.435Z,994.18
2019-03-18T01:09:58.440Z,994.16
2019-03-18T01:10:58.443Z,994.20
2019-03-18T01:11:58.447Z,994.18
2019-03-18T01:12:58.453Z,994.23
2019-03-18T01:13:58.459Z,994.22
2019-03-18T01:14:58.463Z,994.22
2019-03-18T01:15:58.467Z,994.26
2019-03-18T01:16:58.473Z,994.30
2019-03-18T01:17:58.476Z,994.30
2019-03-18T01:18:58.481Z,994.29
2019-03-18T01:19:58.487Z,994.27
2019-03-18T01:20:58.492Z,994.26
2019-03-18T01:21:58.497Z,994.23
2019-03-18T01:22:58.504Z,994.29
2019-03-18T01:23:58.509Z,994.28
2019-03-18T01:24:58.514Z,994.29
2019-03-18T01:25:58.518Z,994.25
2019-03-18T01:26:58.520Z,994.28
2019-03-18T01:27:58.524Z,994.25
2019-03-18T01:28:58.532Z,994.25
2019-03-18T01:29:58.535Z,994.29
2019-03-18T01:30:58.540Z,994.29
2019-03-18T01:31:58.547Z,994.35
2019-03-18T01:32:58.550Z,994.37
2019-03-18T01:33:58.557Z,994.32
2019-03-18T01:34:58.556Z,994.38
2019-03-18T01:35:58.565Z,994.37
2019-03-18T01:36:58.568Z,994.43
2019-03-18T01:37:58.574Z,994.46
2019-03-18T01:38:58.578Z,994.42
2019-03-18T01:39:58.585Z,994.48
2019-03-18T01:40:58.591Z,994.48
2019-03-18T01:41:58.593Z,994.44
2019-03-18T01:42:58.596Z,994.46
2019-03-18T01:43:58.600Z,994.45
2019-03-18T01:44:58.611Z,994.40
2019-03-18T01:45:58.611Z,994.38
2019-03-18T01:46:58.615Z,994.40
2019-03-18T01:47:58.620Z,994.42
2019-03-18T01:48:58.627Z,994.42
2019-03-18T01:49:58.645Z,994.40
2019-03-18T01:50:58.635Z,994.44
2019-03-18T01:51:58.639Z,994.52
2019-03-18T01:52:58.643Z,994.55
2019-03-18T01:53:58.652Z,994.60
2019-03-18T01:54:58.654Z,994.67
2019-03-18T01:55:58.658Z,994.61
2019-03-18T01:56:58.662Z,994.58
2019-03-18T01:57:58.668Z,994.58
2019-03-18T01:58:58.672Z,994.67
2019-03-18T01:59:58.684Z,994.65
2019-03-18T02:00:58.683Z,994.72
2019-03-18T02:01:58.686Z,994.73
2019-03-18T02:02:58.692Z,994.71
2019-03-18T02:03:58.695Z,994.72
2019-03-18T02:04:58.701Z,994.73
2019-03-18T02:05:58.708Z,994.71
2019-03-18T02:06:58.709Z,994.73
2019-03-18T02:07:58.716Z,994.78
2019-03-18T02:08:58.726Z,994.79
2019-03-18T02:09:58.726Z,994.77
2019-03-18T02:10:58.729Z,994.84
2019-03-18T02:11:58.736Z,994.88
2019-03-18T02:12:58.739Z,994.88
2019-03-18T02:13:58.745Z,994.94
2019-03-18T02:14:58.839Z,994.94
2019-03-18T02:15:58.752Z,995.00
2019-03-18T02:16:58.759Z,995.03
2019-03-18T02:17:58.765Z,995.09
2019-03-18T02:18:58.766Z,995.15
2019-03-18T02:19:58.773Z,995.14
2019-03-18T02:20:58.779Z,995.15
2019-03-18T02:21:58.783Z,995.22
2019-03-18T02:22:58.787Z,995.12
2019-03-18T02:23:58.791Z,995.18
2019-03-18T02:24:58.796Z,995.13
2019-03-18T02:25:58.801Z,995.14
2019-03-18T02:26:58.808Z,995.16
2019-03-18T02:27:58.811Z,995.17
2019-03-18T02:28:58.815Z,995.14
2019-03-18T02:29:58.820Z,995.10
2019-03-18T02:30:58.826Z,995.14
2019-03-18T02:31:58.834Z,995.21
2019-03-18T02:32:58.835Z,995.21
2019-03-18T02:33:58.841Z,995.33
2019-03-18T02:34:58.851Z,995.14
2019-03-18T02:35:58.857Z,995.21
2019-03-18T02:36:58.854Z,995.24
2019-03-18T02:37:58.860Z,995.19
2019-03-18T02:38:58.870Z,995.12
2019-03-18T02:39:58.873Z,995.16
2019-03-18T02:40:58.875Z,995.11
2019-03-18T02:41:58.878Z,995.10
2019-03-18T02:42:58.927Z,995.10
2019-03-18T02:43:58.895Z,995.10
2019-03-18T02:44:58.893Z,995.12
2019-03-18T02:46:10.226Z,995.11
2019-03-18T02:46:58.901Z,995.11
2019-03-18T02:47:58.910Z,995.16
2019-03-18T02:48:58.911Z,995.16
2019-03-18T02:49:58.915Z,995.16
2019-03-18T02:50:58.931Z,995.17
2019-03-18T02:51:58.927Z,995.04
2019-03-18T02:52:58.934Z,995.14
2019-03-18T02:53:58.936Z,995.14
2019-03-18T02:54:58.942Z,995.03
2019-03-18T02:55:58.946Z,995.11
2019-03-18T02:56:58.968Z,995.15
2019-03-18T02:57:58.961Z,995.16
2019-03-18T02:58:58.967Z,995.21
2019-03-18T02:59:58.969Z,995.23
2019-03-18T03:00:58.975Z,995.27
2019-03-18T03:01:58.977Z,995.27
2019-03-18T03:02:58.994Z,995.32
2019-03-18T03:03:58.982Z,995.26
2019-03-18T03:04:58.987Z,995.34
2019-03-18T03:05:58.994Z,995.33
2019-03-18T03:06:59.003Z,995.29
2019-03-18T03:07:59.005Z,995.26
2019-03-18T03:08:59.014Z,995.27
2019-03-18T03:09:59.016Z,995.25
2019-03-18T03:10:59.021Z,995.27
2019-03-18T03:11:59.023Z,995.23
2019-03-18T03:12:59.025Z,995.30
2019-03-18T03:13:59.031Z,995.30
2019-03-18T03:14:59.035Z,995.32
2019-03-18T03:15:59.067Z,995.38
2019-03-18T03:16:59.044Z,995.29
2019-03-18T03:17:59.060Z,995.41
2019-03-18T03:18:59.054Z,995.37
2019-03-18T03:19:59.058Z,995.40
2019-03-18T03:20:59.065Z,995.38
2019-03-18T03:21:59.071Z,995.39
2019-03-18T03:22:59.074Z,995.42
2019-03-18T03:23:59.078Z,995.44
2019-03-18T03:24:59.090Z,995.44
2019-03-18T03:25:59.087Z,995.40
2019-03-18T03:26:59.091Z,995.42
2019-03-18T03:27:59.098Z,995.44
2019-03-18T03:28:59.101Z,995.44
2019-03-18T03:29:59.105Z,995.44
2019-03-18T03:30:59.113Z,995.35
2019-03-18T03:31:59.122Z,995.36
2019-03-18T03:32:59.122Z,995.39
2019-03-18T03:33:59.141Z,995.40
2019-03-18T03:34:59.137Z,995.42
2019-03-18T03:35:59.135Z,995.40
2019-03-18T03:36:59.139Z,995.41
2019-03-18T03:37:59.148Z,995.38
2019-03-18T03:38:59.150Z,995.43
2019-03-18T03:39:59.157Z,995.43
2019-03-18T03:40:59.161Z,995.45
2019-03-18T03:41:59.163Z,995.48
2019-03-18T03:42:59.169Z,995.47
2019-03-18T03:43:59.178Z,995.48
2019-03-18T03:44:59.180Z,995.51
2019-03-18T03:45:59.185Z,995.56
2019-03-18T03:46:59.191Z,995.54
2019-03-18T03:47:59.195Z,995.61
2019-03-18T03:48:59.197Z,995.58
2019-03-18T03:49:59.251Z,995.54
2019-03-18T03:50:59.205Z,995.60
2019-03-18T03:51:59.214Z,995.57
2019-03-18T03:52:59.217Z,995.56
2019-03-18T03:53:59.222Z,995.52
2019-03-18T03:54:59.230Z,995.55
2019-03-18T03:55:59.230Z,995.55
2019-03-18T03:56:59.235Z,995.55
2019-03-18T03:57:59.246Z,995.60
2019-03-18T03:58:59.252Z,995.56
2019-03-18T03:59:59.249Z,995.57
2019-03-18T04:00:59.252Z,995.60
2019-03-18T04:01:59.265Z,995.56
2019-03-18T04:02:59.264Z,995.60
2019-03-18T04:03:59.268Z,995.57
2019-03-18T04:04:59.272Z,995.68
2019-03-18T04:05:59.280Z,995.65
2019-03-18T04:06:59.281Z,995.73
2019-03-18T04:07:59.288Z,995.74
2019-03-18T04:08:59.294Z,995.74
2019-03-18T04:09:59.298Z,995.75
2019-03-18T04:10:59.302Z,995.71
2019-03-18T04:11:59.625Z,995.70
2019-03-18T04:12:59.313Z,995.73
2019-03-18T04:13:59.317Z,995.70
2019-03-18T04:14:59.325Z,995.69
2019-03-18T04:15:59.325Z,995.67
2019-03-18T04:17:03.005Z,995.65
2019-03-18T04:17:59.336Z,995.68
2019-03-18T04:18:59.340Z,995.67
2019-03-18T04:19:59.348Z,995.66
2019-03-18T04:20:59.351Z,995.70
2019-03-18T04:21:59.355Z,995.72
2019-03-18T04:22:59.359Z,995.70
2019-03-18T04:23:59.364Z,995.71
2019-03-18T04:24:59.372Z,995.70
2019-03-18T04:25:59.376Z,995.69
2019-03-18T04:26:59.377Z,995.70
2019-03-18T04:27:59.384Z,995.67
2019-03-18T04:28:59.386Z,995.76
2019-03-18T04:29:59.393Z,995.75
2019-03-18T04:30:59.397Z,995.76
2019-03-18T04:31:59.403Z,995.74
2019-03-18T04:32:59.406Z,995.79
2019-03-18T04:33:59.427Z,995.83
2019-03-18T04:34:59.415Z,995.80
2019-03-18T04:35:59.420Z,995.77
2019-03-18T04:36:59.425Z,995.83
2019-03-18T04:37:59.432Z,995.79
2019-03-18T04:38:59.439Z,995.83
2019-03-18T04:39:59.438Z,995.78
2019-03-18T04:40:59.443Z,995.78
2019-03-18T04:41:59.451Z,995.81
2019-03-18T04:42:59.453Z,995.81
2019-03-18T04:43:59.458Z,995.80
2019-03-18T04:44:59.462Z,995.82
2019-03-18T04:45:59.468Z,995.81
2019-03-18T04:46:59.471Z,995.85
2019-03-18T04:47:59.525Z,995.84
2019-03-18T04:48:59.486Z,995.84
2019-03-18T04:49:59.487Z,995.83
2019-03-18T04:50:59.490Z,995.91
2019-03-18T04:51:59.498Z,995.87
2019-03-18T04:52:59.500Z,995.83
2019-03-18T04:53:59.505Z,995.86
2019-03-18T04:54:59.508Z,995.87
2019-03-18T04:55:59.515Z,995.88
2019-03-18T04:56:59.521Z,995.83
2019-03-18T04:57:59.525Z,995.85
2019-03-18T04:58:59.528Z,995.86
2019-03-18T04:59:59.533Z,995.87
2019-03-18T05:00:59.544Z,995.83
2019-03-18T05:01:59.543Z,995.80
2019-03-18T05:02:59.549Z,995.74
2019-03-18T05:03:59.555Z,995.77
2019-03-18T05:04:59.557Z,995.76
2019-03-18T05:05:59.562Z,995.77
2019-03-18T05:06:59.567Z,995.80
2019-03-18T05:07:59.577Z,995.81
2019-03-18T05:08:59.576Z,995.83
2019-03-18T05:09:59.585Z,995.80
2019-03-18T05:10:59.585Z,995.88
2019-03-18T05:11:59.590Z,995.87
2019-03-18T05:12:59.597Z,995.89
2019-03-18T05:13:59.600Z,995.87
2019-03-18T05:14:59.604Z,995.98
2019-03-18T05:15:59.613Z,995.96
2019-03-18T05:16:59.621Z,995.98
2019-03-18T05:17:59.623Z,996.05
2019-03-18T05:18:59.624Z,996.07
2019-03-18T05:19:59.628Z,996.12
2019-03-18T05:20:59.641Z,996.11
2019-03-18T05:21:59.640Z,996.12
2019-03-18T05:22:59.643Z,996.16
2019-03-18T05:23:59.649Z,996.14
2019-03-18T05:24:59.655Z,996.14
2019-03-18T05:25:59.657Z,996.15
2019-03-18T05:26:59.664Z,996.16
2019-03-18T05:27:59.669Z,996.18
2019-03-18T05:28:59.673Z,996.17
2019-03-18T05:29:59.677Z,996.22
2019-03-18T05:30:59.681Z,996.25
2019-03-18T05:31:59.692Z,996.18
2019-03-18T05:32:59.696Z,996.20
2019-03-18T05:33:59.698Z,996.21
2019-03-18T05:34:59.700Z,996.25
2019-03-18T05:35:59.706Z,996.26
2019-03-18T05:36:59.718Z,996.28
2019-03-18T05:37:59.716Z,996.28
2019-03-18T05:38:59.719Z,996.29
2019-03-18T05:39:59.724Z,996.27
2019-03-18T05:40:59.731Z,996.26
2019-03-18T05:41:59.897Z,996.26
2019-03-18T05:42:59.738Z,996.24
2019-03-18T05:43:59.745Z,996.30
2019-03-18T05:44:59.751Z,996.29
2019-03-18T05:45:59.754Z,996.33
2019-03-18T05:46:59.759Z,996.31
2019-03-18T05:47:59.762Z,996.33
2019-03-18T05:48:59.774Z,996.36
2019-03-18T05:49:59.773Z,996.39
2019-03-18T05:50:59.778Z,996.35
2019-03-18T05:51:59.783Z,996.33
2019-03-18T05:52:59.788Z,996.32
2019-03-18T05:53:59.794Z,996.33
2019-03-18T05:54:59.797Z,996.31
2019-03-18T05:55:59.802Z,996.33
2019-03-18T05:56:59.809Z,996.32
2019-03-18T05:57:59.812Z,996.34
2019-03-18T05:58:59.818Z,996.32
2019-03-18T05:59:59.823Z,996.35
2019-03-18T06:00:59.825Z,996.34
2019-03-18T06:01:59.832Z,996.33
2019-03-18T06:02:59.834Z,996.35
2019-03-18T06:03:59.840Z,996.38
2019-03-18T06:04:59.846Z,996.37
2019-03-18T06:05:59.853Z,996.43
2019-03-18T06:06:59.856Z,996.45
2019-03-18T06:07:59.859Z,996.50
2019-03-18T06:08:59.868Z,996.52
2019-03-18T06:09:59.870Z,996.44
2019-03-18T06:10:59.876Z,996.49
2019-03-18T06:11:59.881Z,996.47
2019-03-18T06:12:59.883Z,996.46
2019-03-18T06:13:59.891Z,996.51
2019-03-18T06:14:59.892Z,996.54
2019-03-18T06:15:59.898Z,996.52
2019-03-18T06:16:59.902Z,996.52
2019-03-18T06:17:59.907Z,996.53
2019-03-18T06:19:00.366Z,996.58
2019-03-18T06:19:59.918Z,996.56
2019-03-18T06:20:59.927Z,996.61
2019-03-18T06:21:59.927Z,996.64
2019-03-18T06:22:59.932Z,996.65
2019-03-18T06:23:59.938Z,996.69
2019-03-18T06:24:59.941Z,996.69
2019-03-18T06:25:59.994Z,996.70
2019-03-18T06:26:59.954Z,996.77
2019-03-18T06:27:59.958Z,996.74
2019-03-18T06:28:59.962Z,996.78
2019-03-18T06:29:59.967Z,996.80
2019-03-18T06:30:59.971Z,996.78
2019-03-18T06:31:59.980Z,996.81
2019-03-18T06:32:59.994Z,996.80
2019-03-18T06:33:59.985Z,996.80
2019-03-18T06:34:59.989Z,996.83
2019-03-18T06:35:59.996Z,996.88
2019-03-18T06:36:59.999Z,996.89
2019-03-18T06:38:00.005Z,996.81
2019-03-18T06:39:00.007Z,996.88
2019-03-18T06:40:00.013Z,996.87
2019-03-18T06:41:00.019Z,996.83
2019-03-18T06:42:00.030Z,996.82
2019-03-18T06:43:00.027Z,996.88
2019-03-18T06:44:00.032Z,996.86
2019-03-18T06:45:00.038Z,996.82
2019-03-18T06:46:00.043Z,996.84
2019-03-18T06:47:00.051Z,996.77
2019-03-18T06:48:05.212Z,996.82
2019-03-18T06:49:00.057Z,996.80
2019-03-18T06:50:00.062Z,996.79
2019-03-18T06:51:00.271Z,996.84
2019-03-18T06:52:00.072Z,996.83
2019-03-18T06:53:00.078Z,996.80
2019-03-18T06:54:00.089Z,996.83
2019-03-18T06:55:00.186Z,996.80
2019-03-18T06:56:00.089Z,996.78
2019-03-18T06:57:00.095Z,996.82
2019-03-18T06:58:00.102Z,996.87
2019-03-18T06:59:00.103Z,996.86
2019-03-18T07:00:00.184Z,996.91
2019-03-18T07:01:00.116Z,996.91
2019-03-18T07:02:00.120Z,996.93
2019-03-18T07:03:00.125Z,996.98
2019-03-18T07:04:00.130Z,996.97
2019-03-18T07:05:00.137Z,996.93
2019-03-18T07:06:00.144Z,996.98
2019-03-18T07:07:00.142Z,996.95
2019-03-18T07:08:00.149Z,996.98
2019-03-18T07:09:00.211Z,997.07
2019-03-18T07:10:00.383Z,997.01
2019-03-18T07:11:00.164Z,997.04
2019-03-18T07:12:00.169Z,997.06
2019-03-18T07:13:00.173Z,997.04
2019-03-18T07:14:00.255Z,997.03
2019-03-18T07:15:00.383Z,997.11
2019-03-18T07:16:00.293Z,997.04
2019-03-18T07:17:00.193Z,997.10
2019-03-18T07:18:00.200Z,997.06
2019-03-18T07:19:00.202Z,997.06
2019-03-18T07:20:00.404Z,997.11
2019-03-18T07:21:00.212Z,997.01
2019-03-18T07:22:00.215Z,997.11
2019-03-18T07:23:00.220Z,997.10
2019-03-18T07:24:00.231Z,997.07
2019-03-18T07:25:00.384Z,997.02
2019-03-18T07:26:00.234Z,997.10
2019-03-18T07:27:00.241Z,997.08
2019-03-18T07:28:00.244Z,997.07
2019-03-18T07:29:00.249Z,997.16
2019-03-18T07:30:00.455Z,997.20
2019-03-18T07:31:00.259Z,997.18
2019-03-18T07:32:00.266Z,997.13
2019-03-18T07:33:00.270Z,997.21
2019-03-18T07:34:00.273Z,997.19
2019-03-18T07:35:00.350Z,997.18
2019-03-18T07:36:00.287Z,997.22
2019-03-18T07:37:00.288Z,997.27
2019-03-18T07:38:00.292Z,997.22
2019-03-18T07:39:00.299Z,997.21
2019-03-18T07:40:00.387Z,997.25
2019-03-18T07:41:00.307Z,997.24
2019-03-18T07:42:00.317Z,997.31
2019-03-18T07:43:00.317Z,997.26
2019-03-18T07:44:00.346Z,997.29
2019-03-18T07:45:00.377Z,997.34
2019-03-18T07:46:00.333Z,997.40
2019-03-18T07:47:00.336Z,997.36
2019-03-18T07:48:00.341Z,997.40
2019-03-18T07:49:00.347Z,997.42
2019-03-18T07:50:00.398Z,997.45
2019-03-18T07:51:00.356Z,997.38
2019-03-18T07:52:00.363Z,997.50
2019-03-18T07:53:00.375Z,997.45
2019-03-18T07:54:00.371Z,997.48
2019-03-18T07:55:00.375Z,997.57
2019-03-18T07:56:00.379Z,997.56
2019-03-18T07:57:00.385Z,997.56
2019-03-18T07:58:00.394Z,997.57
2019-03-18T07:59:00.395Z,997.59
2019-03-18T08:00:00.444Z,997.61
2019-03-18T08:01:00.657Z,997.58
2019-03-18T08:02:00.409Z,997.59
2019-03-18T08:03:03.316Z,997.63
2019-03-18T08:04:00.426Z,997.62
2019-03-18T08:05:00.426Z,997.63
2019-03-18T08:06:00.449Z,997.63
2019-03-18T08:07:00.434Z,997.63
2019-03-18T08:08:00.469Z,997.63
2019-03-18T08:09:00.444Z,997.60
2019-03-18T08:10:00.470Z,997.62
2019-03-18T08:11:00.469Z,997.61
2019-03-18T08:12:00.458Z,997.63
2019-03-18T08:13:00.463Z,997.72
2019-03-18T08:14:00.466Z,997.68
2019-03-18T08:15:00.480Z,997.70
2019-03-18T08:16:00.477Z,997.71
2019-03-18T08:17:00.489Z,997.68
2019-03-18T08:18:00.494Z,997.69
2019-03-18T08:19:00.491Z,997.69
2019-03-18T08:20:03.068Z,997.73
2019-03-18T08:21:00.501Z,997.75
2019-03-18T08:22:00.507Z,997.73
2019-03-18T08:23:00.516Z,997.75
2019-03-18T08:24:00.516Z,997.77
2019-03-18T08:25:00.524Z,997.79
2019-03-18T08:26:00.527Z,997.76
2019-03-18T08:27:00.531Z,997.86
2019-03-18T08:28:00.539Z,997.80
2019-03-18T08:29:00.540Z,997.80
2019-03-18T08:30:00.551Z,997.86
2019-03-18T08:31:00.550Z,997.86
2019-03-18T08:32:00.555Z,997.83
2019-03-18T08:33:00.559Z,997.82
2019-03-18T08:34:00.564Z,997.84
2019-03-18T08:35:00.569Z,997.84
2019-03-18T08:36:00.574Z,997.89
2019-03-18T08:37:00.581Z,997.93
2019-03-18T08:38:00.586Z,997.88
2019-03-18T08:39:00.588Z,997.91
2019-03-18T08:40:00.594Z,998.02
2019-03-18T08:41:00.599Z,997.94
2019-03-18T08:42:00.606Z,997.88
2019-03-18T08:43:00.607Z,997.93
2019-03-18T08:44:00.613Z,997.95
2019-03-18T08:45:00.617Z,997.93
2019-03-18T08:46:00.622Z,997.99
2019-03-18T08:47:00.629Z,998.03
2019-03-18T08:48:00.633Z,997.98
2019-03-18T08:49:00.646Z,997.99
2019-03-18T08:50:00.643Z,998.01
2019-03-18T08:51:00.719Z,998.03
2019-03-18T08:52:00.652Z,997.98
2019-03-18T08:53:00.656Z,998.01
2019-03-18T08:54:00.662Z,998.00
2019-03-18T08:55:00.665Z,998.00
2019-03-18T08:56:00.674Z,998.04
2019-03-18T08:57:00.769Z,998.05
2019-03-18T08:58:00.683Z,998.08
2019-03-18T08:59:00.691Z,998.11
2019-03-18T09:00:00.731Z,998.09
2019-03-18T09:01:00.696Z,998.07
2019-03-18T09:02:00.700Z,998.15
2019-03-18T09:03:00.705Z,998.09
2019-03-18T09:04:00.709Z,998.06
2019-03-18T09:05:00.716Z,998.08
2019-03-18T09:06:00.722Z,998.05
2019-03-18T09:07:00.755Z,998.06
2019-03-18T09:08:00.729Z,998.08
2019-03-18T09:09:00.738Z,998.11
2019-03-18T09:10:00.742Z,998.09
2019-03-18T09:11:00.744Z,998.10
2019-03-18T09:12:00.750Z,998.09
2019-03-18T09:13:00.972Z,998.10
2019-03-18T09:14:00.765Z,998.05
2019-03-18T09:15:00.764Z,998.11
2019-03-18T09:16:00.772Z,998.16
2019-03-18T09:17:00.775Z,998.13
2019-03-18T09:18:00.779Z,998.21
2019-03-18T09:19:08.582Z,998.12
2019-03-18T09:20:00.790Z,998.16
2019-03-18T09:21:00.794Z,998.10
2019-03-18T09:22:00.799Z,998.13
2019-03-18T09:23:01.615Z,998.12
2019-03-18T09:24:00.807Z,998.17
2019-03-18T09:25:00.812Z,998.13
2019-03-18T09:26:00.818Z,998.15
2019-03-18T09:27:02.719Z,998.12
2019-03-18T09:28:00.826Z,998.15
2019-03-18T09:29:00.834Z,998.17
2019-03-18T09:30:00.838Z,998.16
2019-03-18T09:31:00.842Z,998.18
2019-03-18T09:32:00.850Z,998.22
2019-03-18T09:33:00.852Z,998.30
2019-03-18T09:34:00.858Z,998.25
2019-03-18T09:35:00.862Z,998.31
2019-03-18T09:36:00.868Z,998.27
2019-03-18T09:37:00.872Z,998.34
2019-03-18T09:38:00.876Z,998.29
2019-03-18T09:39:00.882Z,998.33
2019-03-18T09:40:00.887Z,998.37
2019-03-18T09:41:00.900Z,998.45
2019-03-18T09:42:00.945Z,998.43
2019-03-18T09:43:00.901Z,998.50
2019-03-18T09:44:01.007Z,998.46
2019-03-18T09:45:00.909Z,998.50
2019-03-18T09:46:00.925Z,998.53
2019-03-18T09:47:00.922Z,998.52
2019-03-18T09:48:00.925Z,998.55
2019-03-18T09:49:00.930Z,998.55
2019-03-18T09:50:00.934Z,998.52
2019-03-18T09:51:00.946Z,998.58
2019-03-18T09:52:00.968Z,998.56
2019-03-18T09:53:00.950Z,998.49
2019-03-18T09:54:00.957Z,998.49
2019-03-18T09:55:00.959Z,998.53
2019-03-18T09:56:00.963Z,998.54
2019-03-18T09:57:00.970Z,998.52
2019-03-18T09:58:00.976Z,998.53
2019-03-18T09:59:00.983Z,998.62
2019-03-18T10:00:00.984Z,998.56
2019-03-18T10:01:00.990Z,998.53
2019-03-18T10:02:00.995Z,998.55
2019-03-18T10:03:00.999Z,998.53
2019-03-18T10:04:01.004Z,998.53
2019-03-18T10:05:01.010Z,998.51
2019-03-18T10:06:01.014Z,998.56
2019-03-18T10:07:01.019Z,998.58
2019-03-18T10:08:01.026Z,998.57
2019-03-18T10:09:01.028Z,998.59
2019-03-18T10:10:01.037Z,998.58
2019-03-18T10:11:01.039Z,998.61
2019-03-18T10:12:01.044Z,998.56
2019-03-18T10:13:01.057Z,998.50
2019-03-18T10:14:01.057Z,998.48
2019-03-18T10:15:01.057Z,998.50
2019-03-18T10:16:01.062Z,998.49
2019-03-18T10:17:09.484Z,998.57
2019-03-18T10:18:01.190Z,998.57
2019-03-18T10:19:01.077Z,998.53
2019-03-18T10:20:01.090Z,998.55
2019-03-18T10:21:01.092Z,998.57
2019-03-18T10:22:01.098Z,998.59
2019-03-18T10:23:02.964Z,998.56
2019-03-18T10:24:01.102Z,998.61
2019-03-18T10:25:04.062Z,998.61
2019-03-18T10:26:01.113Z,998.64
2019-03-18T10:27:01.116Z,998.65
2019-03-18T10:28:01.123Z,998.64
2019-03-18T10:29:01.132Z,998.70
2019-03-18T10:30:01.135Z,998.62
2019-03-18T10:31:01.135Z,998.68
2019-03-18T10:32:01.141Z,998.70
2019-03-18T10:33:01.151Z,998.67
2019-03-18T10:34:01.151Z,998.70
2019-03-18T10:35:01.156Z,998.71
2019-03-18T10:36:01.159Z,998.69
2019-03-18T10:37:01.199Z,998.74
2019-03-18T10:38:01.171Z,998.72
2019-03-18T10:39:01.175Z,998.73
2019-03-18T10:40:01.181Z,998.76
2019-03-18T10:41:01.186Z,998.75
2019-03-18T10:42:01.190Z,998.77
2019-03-18T10:43:01.195Z,998.80
2019-03-18T10:44:01.234Z,998.77
2019-03-18T10:45:01.209Z,998.79
2019-03-18T10:46:01.210Z,998.81
2019-03-18T10:47:01.216Z,998.82
2019-03-18T10:48:01.218Z,998.78
2019-03-18T10:49:01.225Z,998.78
2019-03-18T10:50:01.231Z,998.80
2019-03-18T10:51:01.234Z,998.77
2019-03-18T10:52:01.270Z,998.80
2019-03-18T10:53:01.244Z,998.82
2019-03-18T10:54:01.253Z,998.80
2019-03-18T10:55:01.254Z,998.81
2019-03-18T10:56:07.770Z,998.73
2019-03-18T10:57:01.263Z,998.84
2019-03-18T10:58:01.271Z,998.78
2019-03-18T10:59:01.275Z,998.86
2019-03-18T11:00:01.749Z,998.80
2019-03-18T11:01:01.300Z,998.82
2019-03-18T11:02:01.288Z,998.88
2019-03-18T11:03:01.302Z,998.89
2019-03-18T11:04:01.305Z,998.91
2019-03-18T11:05:01.303Z,998.94
2019-03-18T11:06:01.310Z,998.92
2019-03-18T11:07:01.311Z,998.99
2019-03-18T11:08:01.318Z,998.93
2019-03-18T11:09:01.327Z,998.93
2019-03-18T11:10:01.329Z,998.95
2019-03-18T11:11:01.332Z,998.96
2019-03-18T11:12:01.338Z,999.00
2019-03-18T11:13:01.341Z,999.02
2019-03-18T11:14:01.498Z,999.03
2019-03-18T11:15:01.352Z,998.97
2019-03-18T11:16:01.360Z,998.99
2019-03-18T11:17:01.364Z,999.04
2019-03-18T11:18:01.365Z,999.04
2019-03-18T11:19:01.369Z,999.03
2019-03-18T11:20:01.377Z,999.06
2019-03-18T11:21:01.381Z,999.14
2019-03-18T11:22:01.386Z,999.13
2019-03-18T11:23:01.390Z,999.08
2019-03-18T11:24:01.395Z,999.11
2019-03-18T11:25:01.402Z,999.09
2019-03-18T11:26:01.404Z,999.15
2019-03-18T11:27:01.412Z,999.13
2019-03-18T11:28:01.416Z,999.13
2019-03-18T11:29:01.420Z,999.19
2019-03-18T11:30:01.424Z,999.12
2019-03-18T11:31:01.506Z,999.11
2019-03-18T11:32:01.436Z,999.16
2019-03-18T11:33:01.439Z,999.18
2019-03-18T11:34:01.447Z,999.19
2019-03-18T11:35:01.448Z,999.14
2019-03-18T11:36:01.455Z,999.14
2019-03-18T11:37:01.460Z,999.18
2019-03-18T11:38:01.465Z,999.21
2019-03-18T11:39:01.467Z,999.21
2019-03-18T11:40:01.474Z,999.20
2019-03-18T11:41:01.479Z,999.26
2019-03-18T11:42:01.485Z,999.22
2019-03-18T11:43:01.488Z,999.22
2019-03-18T11:44:01.494Z,999.28
2019-03-18T11:45:01.498Z,999.27
2019-03-18T11:46:01.507Z,999.28
2019-03-18T11:47:01.509Z,999.26
2019-03-18T11:48:01.513Z,999.31
2019-03-18T11:49:01.590Z,999.32
2019-03-18T11:50:10.325Z,999.29
2019-03-18T11:51:01.528Z,999.38
2019-03-18T11:52:01.534Z,999.35
2019-03-18T11:53:13.486Z,999.35
2019-03-18T11:54:01.544Z,999.35
2019-03-18T11:55:01.546Z,999.33
2019-03-18T11:56:01.553Z,999.37
2019-03-18T11:57:01.557Z,999.34
2019-03-18T11:58:01.562Z,999.31
2019-03-18T11:59:01.567Z,999.30
2019-03-18T12:00:01.578Z,999.34
2019-03-18T12:01:01.577Z,999.30
2019-03-18T12:02:01.584Z,999.29
2019-03-18T12:03:01.586Z,999.34
2019-03-18T12:04:01.592Z,999.34
2019-03-18T12:05:01.596Z,999.33
2019-03-18T12:06:01.601Z,999.33
2019-03-18T12:07:01.606Z,999.32
2019-03-18T12:08:01.609Z,999.33
2019-03-18T12:09:01.620Z,999.35
2019-03-18T12:10:01.624Z,999.39
2019-03-18T12:11:01.626Z,999.34
2019-03-18T12:12:01.629Z,999.41
2019-03-18T12:13:01.637Z,999.43
2019-03-18T12:14:01.642Z,999.42
2019-03-18T12:15:01.772Z,999.48
2019-03-18T12:16:01.649Z,999.46
2019-03-18T12:17:01.710Z,999.44
2019-03-18T12:18:01.659Z,999.43
2019-03-18T12:19:01.665Z,999.45
2019-03-18T12:20:01.671Z,999.47
2019-03-18T12:21:01.675Z,999.48
2019-03-18T12:22:01.678Z,999.49
2019-03-18T12:23:01.684Z,999.47
2019-03-18T12:24:01.691Z,999.49
2019-03-18T12:25:01.693Z,999.50
2019-03-18T12:26:01.717Z,999.48
2019-03-18T12:27:01.704Z,999.51
2019-03-18T12:28:04.833Z,999.50
2019-03-18T12:29:01.712Z,999.53